sensor_id;sensor_type;location;lat;lon;timestamp;temperature;humidity
43810;DHT22;29440;48.208;11.162;2024-03-08T00:01:10;1.20;99.90
43810;DHT22;29440;48.208;11.162;2024-03-08T00:03:35;1.20;99.90
43810;DHT22;29440;48.208;11.162;2024-03-08T00:06:01;1.10;99.90
43810;DHT22;29440;48.208;11.162;2024-03-08T00:08:27;1.10;99.90
43810;DHT22;29440;48.208;11.162;2024-03-08T00:10:53;1.10;99.90
43810;DHT22;29440;48.208;11.162;2024-03-08T00:13:18;1.10;99.90
43810;DHT22;29440;48.208;11.162;2024-03-08T00:15:44;1.10;99.90
43810;DHT22;29440;48.208;11.162;2024-03-08T00:18:09;1.10;99.90
43810;DHT22;29440;48.208;11.162;2024-03-08T00:20:36;1.10;99.90
43810;DHT22;29440;48.208;11.162;2024-03-08T00:23:02;1.00;99.90
43810;DHT22;29440;48.208;11.162;2024-03-08T00:25:28;1.00;99.90
43810;DHT22;29440;48.208;11.162;2024-03-08T00:27:53;1.00;99.90
43810;DHT22;29440;48.208;11.162;2024-03-08T00:30:22;1.00;99.90
43810;DHT22;29440;48.208;11.162;2024-03-08T00:32:50;1.00;99.90
43810;DHT22;29440;48.208;11.162;2024-03-08T00:35:16;1.00;99.90
43810;DHT22;29440;48.208;11.162;2024-03-08T00:37:41;0.90;99.90
43810;DHT22;29440;48.208;11.162;2024-03-08T00:40:07;0.90;99.90
43810;DHT22;29440;48.208;11.162;2024-03-08T00:42:34;0.90;99.90
43810;DHT22;29440;48.208;11.162;2024-03-08T00:45:00;0.90;99.90
43810;DHT22;29440;48.208;11.162;2024-03-08T00:47:25;0.90;99.90
43810;DHT22;29440;48.208;11.162;2024-03-08T00:49:52;0.80;99.90
43810;DHT22;29440;48.208;11.162;2024-03-08T00:52:18;0.80;99.90
43810;DHT22;29440;48.208;11.162;2024-03-08T00:54:44;0.80;99.90
43810;DHT22;29440;48.208;11.162;2024-03-08T00:57:10;0.80;99.90
43810;DHT22;29440;48.208;11.162;2024-03-08T00:59:37;0.80;99.90
43810;DHT22;29440;48.208;11.162;2024-03-08T01:02:03;0.80;99.90
43810;DHT22;29440;48.208;11.162;2024-03-08T01:04:29;0.70;99.90
43810;DHT22;29440;48.208;11.162;2024-03-08T01:06:58;0.70;99.90
43810;DHT22;29440;48.208;11.162;2024-03-08T01:09:24;0.70;99.90
43810;DHT22;29440;48.208;11.162;2024-03-08T01:11:50;0.70;99.90
43810;DHT22;29440;48.208;11.162;2024-03-08T01:14:16;0.60;99.90
43810;DHT22;29440;48.208;11.162;2024-03-08T01:16:42;0.60;99.90
43810;DHT22;29440;48.208;11.162;2024-03-08T01:19:07;0.60;99.90
43810;DHT22;29440;48.208;11.162;2024-03-08T01:21:33;0.60;99.90
43810;DHT22;29440;48.208;11.162;2024-03-08T01:23:58;0.60;99.90
43810;DHT22;29440;48.208;11.162;2024-03-08T01:26:24;0.60;99.90
43810;DHT22;29440;48.208;11.162;2024-03-08T01:28:50;0.60;99.90
43810;DHT22;29440;48.208;11.162;2024-03-08T01:31:15;0.50;99.90
43810;DHT22;29440;48.208;11.162;2024-03-08T01:33:41;0.60;99.90
43810;DHT22;29440;48.208;11.162;2024-03-08T01:36:07;0.50;99.90
43810;DHT22;29440;48.208;11.162;2024-03-08T01:38:32;0.50;99.90
43810;DHT22;29440;48.208;11.162;2024-03-08T01:40:59;0.50;99.90
43810;DHT22;29440;48.208;11.162;2024-03-08T01:43:28;0.50;99.90
43810;DHT22;29440;48.208;11.162;2024-03-08T01:45:55;0.50;99.90
43810;DHT22;29440;48.208;11.162;2024-03-08T01:48:23;0.50;99.90
43810;DHT22;29440;48.208;11.162;2024-03-08T01:50:50;0.50;99.90
43810;DHT22;29440;48.208;11.162;2024-03-08T01:53:17;0.50;99.90
43810;DHT22;29440;48.208;11.162;2024-03-08T01:55:45;0.40;99.90
43810;DHT22;29440;48.208;11.162;2024-03-08T01:58:12;0.40;99.90
43810;DHT22;29440;48.208;11.162;2024-03-08T02:00:43;0.50;99.90
43810;DHT22;29440;48.208;11.162;2024-03-08T02:03:09;0.40;99.90
43810;DHT22;29440;48.208;11.162;2024-03-08T02:05:36;0.40;99.90
43810;DHT22;29440;48.208;11.162;2024-03-08T02:08:04;0.40;99.90
43810;DHT22;29440;48.208;11.162;2024-03-08T02:10:33;0.40;99.90
43810;DHT22;29440;48.208;11.162;2024-03-08T02:12:59;0.30;99.90
43810;DHT22;29440;48.208;11.162;2024-03-08T02:15:25;0.30;99.90
43810;DHT22;29440;48.208;11.162;2024-03-08T02:17:51;0.30;99.90
43810;DHT22;29440;48.208;11.162;2024-03-08T02:20:18;0.30;99.90
43810;DHT22;29440;48.208;11.162;2024-03-08T02:22:45;0.30;99.90
43810;DHT22;29440;48.208;11.162;2024-03-08T02:25:11;0.30;99.90
43810;DHT22;29440;48.208;11.162;2024-03-08T02:27:37;0.30;99.90
43810;DHT22;29440;48.208;11.162;2024-03-08T02:30:03;0.30;99.90
43810;DHT22;29440;48.208;11.162;2024-03-08T02:32:30;0.30;99.90
43810;DHT22;29440;48.208;11.162;2024-03-08T02:34:58;0.20;99.90
43810;DHT22;29440;48.208;11.162;2024-03-08T02:37:25;0.20;99.90
43810;DHT22;29440;48.208;11.162;2024-03-08T02:39:51;0.20;99.90
43810;DHT22;29440;48.208;11.162;2024-03-08T02:42:16;0.20;99.90
43810;DHT22;29440;48.208;11.162;2024-03-08T02:44:43;0.20;99.90
43810;DHT22;29440;48.208;11.162;2024-03-08T02:47:12;0.20;99.90
43810;DHT22;29440;48.208;11.162;2024-03-08T02:49:37;0.20;99.90
43810;DHT22;29440;48.208;11.162;2024-03-08T02:52:04;0.20;99.90
43810;DHT22;29440;48.208;11.162;2024-03-08T02:54:30;0.10;99.90
43810;DHT22;29440;48.208;11.162;2024-03-08T02:56:55;0.10;99.90
43810;DHT22;29440;48.208;11.162;2024-03-08T02:59:21;0.10;99.90
43810;DHT22;29440;48.208;11.162;2024-03-08T03:01:47;0.10;99.90
43810;DHT22;29440;48.208;11.162;2024-03-08T03:04:12;0.10;99.90
43810;DHT22;29440;48.208;11.162;2024-03-08T03:06:38;0.10;99.90
43810;DHT22;29440;48.208;11.162;2024-03-08T03:09:04;0.10;99.90
43810;DHT22;29440;48.208;11.162;2024-03-08T03:11:31;0.10;99.90
43810;DHT22;29440;48.208;11.162;2024-03-08T03:13:57;0.10;99.90
43810;DHT22;29440;48.208;11.162;2024-03-08T03:16:22;0.10;99.90
43810;DHT22;29440;48.208;11.162;2024-03-08T03:18:48;0.10;99.90
43810;DHT22;29440;48.208;11.162;2024-03-08T03:21:14;0.00;99.90
43810;DHT22;29440;48.208;11.162;2024-03-08T03:23:40;0.00;99.90
43810;DHT22;29440;48.208;11.162;2024-03-08T03:26:06;0.00;99.90
43810;DHT22;29440;48.208;11.162;2024-03-08T03:28:37;0.00;99.90
43810;DHT22;29440;48.208;11.162;2024-03-08T03:31:06;0.00;99.90
43810;DHT22;29440;48.208;11.162;2024-03-08T03:33:32;0.00;99.90
43810;DHT22;29440;48.208;11.162;2024-03-08T03:35:59;0.00;99.90
43810;DHT22;29440;48.208;11.162;2024-03-08T03:38:26;0.00;99.90
43810;DHT22;29440;48.208;11.162;2024-03-08T03:40:53;-0.10;99.90
43810;DHT22;29440;48.208;11.162;2024-03-08T03:43:25;-0.10;99.90
43810;DHT22;29440;48.208;11.162;2024-03-08T03:45:51;-0.10;99.90
43810;DHT22;29440;48.208;11.162;2024-03-08T03:48:16;-0.10;99.90
43810;DHT22;29440;48.208;11.162;2024-03-08T03:50:42;-0.10;99.90
43810;DHT22;29440;48.208;11.162;2024-03-08T03:53:08;-0.10;99.90
43810;DHT22;29440;48.208;11.162;2024-03-08T03:55:34;-0.10;99.90
43810;DHT22;29440;48.208;11.162;2024-03-08T03:58:00;-0.10;99.90
43810;DHT22;29440;48.208;11.162;2024-03-08T04:00:27;-0.10;99.90
43810;DHT22;29440;48.208;11.162;2024-03-08T04:02:53;-0.10;99.90
43810;DHT22;29440;48.208;11.162;2024-03-08T04:05:18;-0.20;99.90
43810;DHT22;29440;48.208;11.162;2024-03-08T04:07:44;-0.10;99.90
43810;DHT22;29440;48.208;11.162;2024-03-08T04:10:11;-0.20;99.90
43810;DHT22;29440;48.208;11.162;2024-03-08T04:12:38;-0.20;99.90
43810;DHT22;29440;48.208;11.162;2024-03-08T04:15:04;-0.20;99.90
43810;DHT22;29440;48.208;11.162;2024-03-08T04:17:33;-0.20;99.90
43810;DHT22;29440;48.208;11.162;2024-03-08T04:20:05;-0.20;99.90
43810;DHT22;29440;48.208;11.162;2024-03-08T04:22:38;-0.20;99.90
43810;DHT22;29440;48.208;11.162;2024-03-08T04:25:05;-0.20;99.90
43810;DHT22;29440;48.208;11.162;2024-03-08T04:27:32;-0.20;99.90
43810;DHT22;29440;48.208;11.162;2024-03-08T04:29:58;-0.20;99.90
43810;DHT22;29440;48.208;11.162;2024-03-08T04:32:24;-0.20;99.90
43810;DHT22;29440;48.208;11.162;2024-03-08T04:34:50;-0.20;99.90
43810;DHT22;29440;48.208;11.162;2024-03-08T04:37:16;-0.30;99.90
43810;DHT22;29440;48.208;11.162;2024-03-08T04:39:46;-0.30;99.90
43810;DHT22;29440;48.208;11.162;2024-03-08T04:42:12;-0.30;99.90
43810;DHT22;29440;48.208;11.162;2024-03-08T04:44:39;-0.30;99.90
43810;DHT22;29440;48.208;11.162;2024-03-08T04:47:04;-0.30;99.90
43810;DHT22;29440;48.208;11.162;2024-03-08T04:49:34;-0.30;99.90
43810;DHT22;29440;48.208;11.162;2024-03-08T04:52:04;-0.30;99.90
43810;DHT22;29440;48.208;11.162;2024-03-08T04:54:30;-0.40;99.90
43810;DHT22;29440;48.208;11.162;2024-03-08T04:56:56;-0.40;99.90
43810;DHT22;29440;48.208;11.162;2024-03-08T04:59:21;-0.30;99.90
43810;DHT22;29440;48.208;11.162;2024-03-08T05:01:47;-0.40;99.90
43810;DHT22;29440;48.208;11.162;2024-03-08T05:04:13;-0.40;99.90
43810;DHT22;29440;48.208;11.162;2024-03-08T05:06:39;-0.40;99.90
43810;DHT22;29440;48.208;11.162;2024-03-08T05:09:04;-0.40;99.90
43810;DHT22;29440;48.208;11.162;2024-03-08T05:11:43;-0.30;99.90
43810;DHT22;29440;48.208;11.162;2024-03-08T05:14:13;-0.30;99.90
43810;DHT22;29440;48.208;11.162;2024-03-08T05:16:43;-0.30;99.90
43810;DHT22;29440;48.208;11.162;2024-03-08T05:19:08;-0.30;99.90
43810;DHT22;29440;48.208;11.162;2024-03-08T05:21:34;-0.30;99.90
43810;DHT22;29440;48.208;11.162;2024-03-08T05:23:59;-0.30;99.90
43810;DHT22;29440;48.208;11.162;2024-03-08T05:26:25;-0.30;99.90
43810;DHT22;29440;48.208;11.162;2024-03-08T05:28:50;-0.20;99.90
43810;DHT22;29440;48.208;11.162;2024-03-08T05:31:22;-0.20;99.90
43810;DHT22;29440;48.208;11.162;2024-03-08T05:33:48;-0.20;99.90
43810;DHT22;29440;48.208;11.162;2024-03-08T05:36:14;-0.10;99.90
43810;DHT22;29440;48.208;11.162;2024-03-08T05:38:42;-0.10;99.90
43810;DHT22;29440;48.208;11.162;2024-03-08T05:41:09;-0.10;99.90
43810;DHT22;29440;48.208;11.162;2024-03-08T05:43:34;0.00;99.90
43810;DHT22;29440;48.208;11.162;2024-03-08T05:46:00;0.00;99.90
43810;DHT22;29440;48.208;11.162;2024-03-08T05:48:26;0.00;99.90
43810;DHT22;29440;48.208;11.162;2024-03-08T05:50:51;0.10;99.90
43810;DHT22;29440;48.208;11.162;2024-03-08T05:53:17;0.10;99.90
43810;DHT22;29440;48.208;11.162;2024-03-08T05:55:42;0.10;99.90
43810;DHT22;29440;48.208;11.162;2024-03-08T05:58:08;0.10;99.90
43810;DHT22;29440;48.208;11.162;2024-03-08T06:00:34;0.10;99.90
43810;DHT22;29440;48.208;11.162;2024-03-08T06:03:01;0.20;99.90
43810;DHT22;29440;48.208;11.162;2024-03-08T06:05:28;0.30;99.90
43810;DHT22;29440;48.208;11.162;2024-03-08T06:07:53;0.20;99.90
43810;DHT22;29440;48.208;11.162;2024-03-08T06:10:19;0.20;99.90
43810;DHT22;29440;48.208;11.162;2024-03-08T06:12:54;0.30;99.90
43810;DHT22;29440;48.208;11.162;2024-03-08T06:15:20;0.30;99.90
43810;DHT22;29440;48.208;11.162;2024-03-08T06:17:46;0.30;99.90
43810;DHT22;29440;48.208;11.162;2024-03-08T06:20:11;0.30;99.90
43810;DHT22;29440;48.208;11.162;2024-03-08T06:22:38;0.30;99.90
43810;DHT22;29440;48.208;11.162;2024-03-08T06:25:07;0.40;99.90
43810;DHT22;29440;48.208;11.162;2024-03-08T06:27:32;0.40;99.90
43810;DHT22;29440;48.208;11.162;2024-03-08T06:30:02;0.40;99.90
43810;DHT22;29440;48.208;11.162;2024-03-08T06:32:30;0.40;99.90
43810;DHT22;29440;48.208;11.162;2024-03-08T06:34:56;0.40;99.90
43810;DHT22;29440;48.208;11.162;2024-03-08T06:37:21;0.40;99.90
43810;DHT22;29440;48.208;11.162;2024-03-08T06:39:48;0.50;99.90
43810;DHT22;29440;48.208;11.162;2024-03-08T06:42:13;0.40;99.90
43810;DHT22;29440;48.208;11.162;2024-03-08T06:44:39;0.50;99.90
43810;DHT22;29440;48.208;11.162;2024-03-08T06:47:14;0.50;99.90
43810;DHT22;29440;48.208;11.162;2024-03-08T06:49:41;0.50;99.90
43810;DHT22;29440;48.208;11.162;2024-03-08T06:52:07;0.60;99.90
43810;DHT22;29440;48.208;11.162;2024-03-08T06:54:34;0.60;99.90
43810;DHT22;29440;48.208;11.162;2024-03-08T06:57:02;0.60;99.90
43810;DHT22;29440;48.208;11.162;2024-03-08T06:59:28;0.60;99.90
43810;DHT22;29440;48.208;11.162;2024-03-08T07:01:54;0.60;99.90
43810;DHT22;29440;48.208;11.162;2024-03-08T07:04:20;0.60;99.90
43810;DHT22;29440;48.208;11.162;2024-03-08T07:06:47;0.60;99.90
43810;DHT22;29440;48.208;11.162;2024-03-08T07:09:15;0.70;99.90
43810;DHT22;29440;48.208;11.162;2024-03-08T07:11:44;0.70;99.90
43810;DHT22;29440;48.208;11.162;2024-03-08T07:14:09;0.70;99.90
43810;DHT22;29440;48.208;11.162;2024-03-08T07:16:35;0.70;99.90
43810;DHT22;29440;48.208;11.162;2024-03-08T07:19:01;0.70;99.90
43810;DHT22;29440;48.208;11.162;2024-03-08T07:21:27;0.70;99.90
43810;DHT22;29440;48.208;11.162;2024-03-08T07:23:53;0.70;99.90
43810;DHT22;29440;48.208;11.162;2024-03-08T07:26:27;0.70;99.90
43810;DHT22;29440;48.208;11.162;2024-03-08T07:28:53;0.70;99.90
43810;DHT22;29440;48.208;11.162;2024-03-08T07:31:22;0.70;99.90
43810;DHT22;29440;48.208;11.162;2024-03-08T07:34:02;0.70;99.90
43810;DHT22;29440;48.208;11.162;2024-03-08T07:36:28;0.70;99.90
43810;DHT22;29440;48.208;11.162;2024-03-08T07:38:54;0.70;99.90
43810;DHT22;29440;48.208;11.162;2024-03-08T07:41:20;0.70;99.90
43810;DHT22;29440;48.208;11.162;2024-03-08T07:43:45;0.80;99.90
43810;DHT22;29440;48.208;11.162;2024-03-08T07:46:11;0.80;99.90
43810;DHT22;29440;48.208;11.162;2024-03-08T07:48:38;0.80;99.90
43810;DHT22;29440;48.208;11.162;2024-03-08T07:51:05;0.90;99.90
43810;DHT22;29440;48.208;11.162;2024-03-08T07:53:31;0.90;99.90
43810;DHT22;29440;48.208;11.162;2024-03-08T07:55:56;0.90;99.90
43810;DHT22;29440;48.208;11.162;2024-03-08T07:58:22;1.00;99.90
43810;DHT22;29440;48.208;11.162;2024-03-08T08:00:49;1.10;99.90
43810;DHT22;29440;48.208;11.162;2024-03-08T08:03:14;1.20;99.90
43810;DHT22;29440;48.208;11.162;2024-03-08T08:05:41;1.10;99.90
43810;DHT22;29440;48.208;11.162;2024-03-08T08:08:10;1.20;99.90
43810;DHT22;29440;48.208;11.162;2024-03-08T08:10:36;1.30;99.90
43810;DHT22;29440;48.208;11.162;2024-03-08T08:13:02;1.30;99.90
43810;DHT22;29440;48.208;11.162;2024-03-08T08:15:30;1.30;99.90
43810;DHT22;29440;48.208;11.162;2024-03-08T08:17:55;1.40;99.90
43810;DHT22;29440;48.208;11.162;2024-03-08T08:20:21;1.40;99.90
43810;DHT22;29440;48.208;11.162;2024-03-08T08:22:47;1.50;99.90
43810;DHT22;29440;48.208;11.162;2024-03-08T08:25:13;1.50;99.90
43810;DHT22;29440;48.208;11.162;2024-03-08T08:27:45;1.60;99.90
43810;DHT22;29440;48.208;11.162;2024-03-08T08:30:12;1.60;99.90
43810;DHT22;29440;48.208;11.162;2024-03-08T08:32:38;1.70;99.90
43810;DHT22;29440;48.208;11.162;2024-03-08T08:35:12;1.80;99.90
43810;DHT22;29440;48.208;11.162;2024-03-08T08:37:41;1.90;99.90
43810;DHT22;29440;48.208;11.162;2024-03-08T08:40:08;2.00;99.90
43810;DHT22;29440;48.208;11.162;2024-03-08T08:42:40;2.10;99.90
43810;DHT22;29440;48.208;11.162;2024-03-08T08:45:06;2.30;99.90
43810;DHT22;29440;48.208;11.162;2024-03-08T08:47:36;2.40;99.90
43810;DHT22;29440;48.208;11.162;2024-03-08T08:50:02;2.60;99.90
43810;DHT22;29440;48.208;11.162;2024-03-08T08:52:30;2.70;99.90
43810;DHT22;29440;48.208;11.162;2024-03-08T08:54:56;2.80;99.90
43810;DHT22;29440;48.208;11.162;2024-03-08T08:57:22;3.10;99.90
43810;DHT22;29440;48.208;11.162;2024-03-08T08:59:48;3.40;99.90
43810;DHT22;29440;48.208;11.162;2024-03-08T09:02:13;3.70;99.90
43810;DHT22;29440;48.208;11.162;2024-03-08T09:04:39;3.80;99.90
43810;DHT22;29440;48.208;11.162;2024-03-08T09:07:05;3.80;99.90
43810;DHT22;29440;48.208;11.162;2024-03-08T09:09:33;3.90;99.90
43810;DHT22;29440;48.208;11.162;2024-03-08T09:12:00;4.00;99.90
43810;DHT22;29440;48.208;11.162;2024-03-08T09:14:26;4.10;99.90
43810;DHT22;29440;48.208;11.162;2024-03-08T09:16:52;4.40;99.90
43810;DHT22;29440;48.208;11.162;2024-03-08T09:19:17;4.50;99.90
43810;DHT22;29440;48.208;11.162;2024-03-08T09:21:44;4.80;99.90
43810;DHT22;29440;48.208;11.162;2024-03-08T09:24:10;5.00;99.90
43810;DHT22;29440;48.208;11.162;2024-03-08T09:26:36;5.20;99.90
43810;DHT22;29440;48.208;11.162;2024-03-08T09:29:02;5.30;99.90
43810;DHT22;29440;48.208;11.162;2024-03-08T09:31:28;5.40;99.90
43810;DHT22;29440;48.208;11.162;2024-03-08T09:33:53;5.40;99.90
43810;DHT22;29440;48.208;11.162;2024-03-08T09:36:19;5.40;99.90
43810;DHT22;29440;48.208;11.162;2024-03-08T09:38:45;5.30;99.90
43810;DHT22;29440;48.208;11.162;2024-03-08T09:41:11;5.50;99.90
43810;DHT22;29440;48.208;11.162;2024-03-08T09:43:38;5.70;99.90
43810;DHT22;29440;48.208;11.162;2024-03-08T09:46:04;5.90;99.90
43810;DHT22;29440;48.208;11.162;2024-03-08T09:48:33;5.90;99.90
43810;DHT22;29440;48.208;11.162;2024-03-08T09:51:00;5.90;99.90
43810;DHT22;29440;48.208;11.162;2024-03-08T09:53:25;5.90;99.90
43810;DHT22;29440;48.208;11.162;2024-03-08T09:55:51;5.80;99.90
43810;DHT22;29440;48.208;11.162;2024-03-08T09:58:17;5.80;99.90
43810;DHT22;29440;48.208;11.162;2024-03-08T10:00:58;5.80;99.90
43810;DHT22;29440;48.208;11.162;2024-03-08T10:03:24;6.00;99.90
43810;DHT22;29440;48.208;11.162;2024-03-08T10:05:53;5.90;99.90
43810;DHT22;29440;48.208;11.162;2024-03-08T10:08:28;6.00;99.90
43810;DHT22;29440;48.208;11.162;2024-03-08T10:10:56;6.00;99.90
43810;DHT22;29440;48.208;11.162;2024-03-08T10:13:26;6.00;99.90
43810;DHT22;29440;48.208;11.162;2024-03-08T10:15:54;6.00;99.90
43810;DHT22;29440;48.208;11.162;2024-03-08T10:18:20;6.00;99.90
43810;DHT22;29440;48.208;11.162;2024-03-08T10:20:53;6.10;99.90
43810;DHT22;29440;48.208;11.162;2024-03-08T10:23:29;6.20;99.90
43810;DHT22;29440;48.208;11.162;2024-03-08T10:25:55;6.30;99.90
43810;DHT22;29440;48.208;11.162;2024-03-08T10:28:23;6.40;99.90
43810;DHT22;29440;48.208;11.162;2024-03-08T10:30:50;6.50;99.90
43810;DHT22;29440;48.208;11.162;2024-03-08T10:33:15;6.60;99.90
43810;DHT22;29440;48.208;11.162;2024-03-08T10:35:41;6.60;99.90
43810;DHT22;29440;48.208;11.162;2024-03-08T10:38:08;6.70;99.90
43810;DHT22;29440;48.208;11.162;2024-03-08T10:40:39;6.80;99.90
43810;DHT22;29440;48.208;11.162;2024-03-08T10:43:06;7.00;99.90
43810;DHT22;29440;48.208;11.162;2024-03-08T10:45:39;7.20;99.90
43810;DHT22;29440;48.208;11.162;2024-03-08T10:50:53;7.30;99.90
43810;DHT22;29440;48.208;11.162;2024-03-08T10:53:20;7.30;99.90
43810;DHT22;29440;48.208;11.162;2024-03-08T10:55:49;7.40;99.90
43810;DHT22;29440;48.208;11.162;2024-03-08T10:58:20;7.50;99.90
43810;DHT22;29440;48.208;11.162;2024-03-08T11:00:46;7.50;99.90
43810;DHT22;29440;48.208;11.162;2024-03-08T11:06:15;7.70;99.90
43810;DHT22;29440;48.208;11.162;2024-03-08T11:08:41;7.60;99.90
43810;DHT22;29440;48.208;11.162;2024-03-08T11:13:52;7.60;99.90
43810;DHT22;29440;48.208;11.162;2024-03-08T11:19:27;7.90;99.90
43810;DHT22;29440;48.208;11.162;2024-03-08T11:21:46;7.80;99.90
43810;DHT22;29440;48.208;11.162;2024-03-08T11:24:13;7.80;99.90
43810;DHT22;29440;48.208;11.162;2024-03-08T11:26:40;7.90;99.90
43810;DHT22;29440;48.208;11.162;2024-03-08T11:32:04;8.00;99.90
43810;DHT22;29440;48.208;11.162;2024-03-08T11:34:31;8.00;99.90
43810;DHT22;29440;48.208;11.162;2024-03-08T11:36:58;8.10;99.90
43810;DHT22;29440;48.208;11.162;2024-03-08T11:39:25;8.20;99.90
43810;DHT22;29440;48.208;11.162;2024-03-08T11:41:51;8.20;99.90
43810;DHT22;29440;48.208;11.162;2024-03-08T11:44:17;8.20;99.90
43810;DHT22;29440;48.208;11.162;2024-03-08T11:46:43;8.30;99.90
43810;DHT22;29440;48.208;11.162;2024-03-08T11:49:16;8.30;99.90
43810;DHT22;29440;48.208;11.162;2024-03-08T11:51:41;8.30;99.90
43810;DHT22;29440;48.208;11.162;2024-03-08T11:54:12;8.20;99.90
43810;DHT22;29440;48.208;11.162;2024-03-08T11:56:41;8.30;99.90
43810;DHT22;29440;48.208;11.162;2024-03-08T11:59:12;8.30;99.90
43810;DHT22;29440;48.208;11.162;2024-03-08T12:01:38;8.30;99.90
43810;DHT22;29440;48.208;11.162;2024-03-08T12:04:04;8.30;99.90
43810;DHT22;29440;48.208;11.162;2024-03-08T12:06:39;8.40;99.90
43810;DHT22;29440;48.208;11.162;2024-03-08T12:09:08;8.40;99.90
43810;DHT22;29440;48.208;11.162;2024-03-08T12:11:36;8.40;99.90
43810;DHT22;29440;48.208;11.162;2024-03-08T12:14:02;8.50;99.90
43810;DHT22;29440;48.208;11.162;2024-03-08T12:16:27;8.60;99.90
43810;DHT22;29440;48.208;11.162;2024-03-08T12:18:53;8.60;99.90
43810;DHT22;29440;48.208;11.162;2024-03-08T12:21:20;8.70;99.90
43810;DHT22;29440;48.208;11.162;2024-03-08T12:23:47;8.70;99.90
43810;DHT22;29440;48.208;11.162;2024-03-08T12:26:24;8.70;99.90
43810;DHT22;29440;48.208;11.162;2024-03-08T12:28:51;8.70;99.90
43810;DHT22;29440;48.208;11.162;2024-03-08T12:31:17;8.70;99.90
43810;DHT22;29440;48.208;11.162;2024-03-08T12:33:49;8.80;99.90
43810;DHT22;29440;48.208;11.162;2024-03-08T12:36:16;8.80;99.90
43810;DHT22;29440;48.208;11.162;2024-03-08T12:38:47;8.90;99.90
43810;DHT22;29440;48.208;11.162;2024-03-08T12:41:20;9.00;99.90
43810;DHT22;29440;48.208;11.162;2024-03-08T12:43:47;9.10;99.90
43810;DHT22;29440;48.208;11.162;2024-03-08T12:46:17;9.20;99.90
43810;DHT22;29440;48.208;11.162;2024-03-08T12:48:45;9.10;99.90
43810;DHT22;29440;48.208;11.162;2024-03-08T12:51:13;9.00;99.90
43810;DHT22;29440;48.208;11.162;2024-03-08T12:53:38;9.10;99.90
43810;DHT22;29440;48.208;11.162;2024-03-08T12:56:06;9.00;99.90
43810;DHT22;29440;48.208;11.162;2024-03-08T12:58:34;9.10;99.90
43810;DHT22;29440;48.208;11.162;2024-03-08T13:01:02;9.10;99.90
43810;DHT22;29440;48.208;11.162;2024-03-08T13:03:30;9.20;99.90
43810;DHT22;29440;48.208;11.162;2024-03-08T13:05:56;9.30;99.90
43810;DHT22;29440;48.208;11.162;2024-03-08T13:08:22;9.30;99.90
43810;DHT22;29440;48.208;11.162;2024-03-08T13:10:50;9.30;99.90
43810;DHT22;29440;48.208;11.162;2024-03-08T13:13:16;9.40;99.90
43810;DHT22;29440;48.208;11.162;2024-03-08T13:15:42;9.40;99.90
43810;DHT22;29440;48.208;11.162;2024-03-08T13:18:08;9.50;99.90
43810;DHT22;29440;48.208;11.162;2024-03-08T13:20:35;9.50;99.90
43810;DHT22;29440;48.208;11.162;2024-03-08T13:23:04;9.50;99.90
43810;DHT22;29440;48.208;11.162;2024-03-08T13:25:31;9.40;99.90
43810;DHT22;29440;48.208;11.162;2024-03-08T13:27:56;9.40;99.90
43810;DHT22;29440;48.208;11.162;2024-03-08T13:30:24;9.40;99.90
43810;DHT22;29440;48.208;11.162;2024-03-08T13:32:52;9.40;99.90
43810;DHT22;29440;48.208;11.162;2024-03-08T13:35:18;9.30;99.90
43810;DHT22;29440;48.208;11.162;2024-03-08T13:37:49;9.40;99.90
43810;DHT22;29440;48.208;11.162;2024-03-08T13:40:16;9.30;99.90
43810;DHT22;29440;48.208;11.162;2024-03-08T13:42:44;9.30;99.90
43810;DHT22;29440;48.208;11.162;2024-03-08T13:45:10;9.30;99.90
43810;DHT22;29440;48.208;11.162;2024-03-08T13:47:37;9.30;99.90
43810;DHT22;29440;48.208;11.162;2024-03-08T13:50:02;9.40;99.90
43810;DHT22;29440;48.208;11.162;2024-03-08T13:52:29;9.40;99.90
43810;DHT22;29440;48.208;11.162;2024-03-08T13:54:55;9.40;99.90
43810;DHT22;29440;48.208;11.162;2024-03-08T13:57:21;9.40;99.90
43810;DHT22;29440;48.208;11.162;2024-03-08T13:59:48;9.40;99.90
43810;DHT22;29440;48.208;11.162;2024-03-08T14:02:14;9.40;99.90
43810;DHT22;29440;48.208;11.162;2024-03-08T14:04:41;9.50;99.90
43810;DHT22;29440;48.208;11.162;2024-03-08T14:07:07;9.40;99.90
43810;DHT22;29440;48.208;11.162;2024-03-08T14:09:34;9.40;99.90
43810;DHT22;29440;48.208;11.162;2024-03-08T14:12:06;9.40;99.90
43810;DHT22;29440;48.208;11.162;2024-03-08T14:14:33;9.40;99.90
43810;DHT22;29440;48.208;11.162;2024-03-08T14:17:01;9.40;99.90
43810;DHT22;29440;48.208;11.162;2024-03-08T14:19:27;9.40;99.90
43810;DHT22;29440;48.208;11.162;2024-03-08T14:21:53;9.40;99.90
43810;DHT22;29440;48.208;11.162;2024-03-08T14:24:19;9.40;99.90
43810;DHT22;29440;48.208;11.162;2024-03-08T14:26:45;9.40;99.90
43810;DHT22;29440;48.208;11.162;2024-03-08T14:29:14;9.40;99.90
43810;DHT22;29440;48.208;11.162;2024-03-08T14:31:40;9.50;99.90
43810;DHT22;29440;48.208;11.162;2024-03-08T14:34:07;9.50;99.90
43810;DHT22;29440;48.208;11.162;2024-03-08T14:36:32;9.50;99.90
43810;DHT22;29440;48.208;11.162;2024-03-08T14:38:58;9.50;99.90
43810;DHT22;29440;48.208;11.162;2024-03-08T14:41:24;9.50;99.90
43810;DHT22;29440;48.208;11.162;2024-03-08T14:43:49;9.50;99.90
43810;DHT22;29440;48.208;11.162;2024-03-08T14:46:15;9.50;99.90
43810;DHT22;29440;48.208;11.162;2024-03-08T14:48:46;9.60;99.90
43810;DHT22;29440;48.208;11.162;2024-03-08T14:51:12;9.50;99.90
43810;DHT22;29440;48.208;11.162;2024-03-08T14:53:43;9.50;99.90
43810;DHT22;29440;48.208;11.162;2024-03-08T14:56:11;9.50;99.90
43810;DHT22;29440;48.208;11.162;2024-03-08T14:58:42;9.40;99.90
43810;DHT22;29440;48.208;11.162;2024-03-08T15:01:12;9.40;99.90
43810;DHT22;29440;48.208;11.162;2024-03-08T15:03:44;9.40;99.90
43810;DHT22;29440;48.208;11.162;2024-03-08T15:06:09;9.30;99.90
43810;DHT22;29440;48.208;11.162;2024-03-08T15:08:37;9.30;99.90
43810;DHT22;29440;48.208;11.162;2024-03-08T15:11:03;9.30;99.90
43810;DHT22;29440;48.208;11.162;2024-03-08T15:13:31;9.30;99.90
43810;DHT22;29440;48.208;11.162;2024-03-08T15:16:10;9.30;99.90
43810;DHT22;29440;48.208;11.162;2024-03-08T15:18:42;9.30;99.90
43810;DHT22;29440;48.208;11.162;2024-03-08T15:21:12;9.20;99.90
43810;DHT22;29440;48.208;11.162;2024-03-08T15:23:43;9.20;99.90
43810;DHT22;29440;48.208;11.162;2024-03-08T15:26:13;9.20;99.90
43810;DHT22;29440;48.208;11.162;2024-03-08T15:28:38;9.10;99.90
43810;DHT22;29440;48.208;11.162;2024-03-08T15:31:05;9.10;99.90
43810;DHT22;29440;48.208;11.162;2024-03-08T15:33:35;9.10;99.90
43810;DHT22;29440;48.208;11.162;2024-03-08T15:36:08;9.10;99.90
43810;DHT22;29440;48.208;11.162;2024-03-08T15:38:38;9.10;99.90
43810;DHT22;29440;48.208;11.162;2024-03-08T15:41:04;9.10;99.90
43810;DHT22;29440;48.208;11.162;2024-03-08T15:43:35;9.00;99.90